Washington, Arkansas
Current Conditions -  °F | °C
As of 11:53 AM on Thursday 18 Dec 2014 (Local Time) from KTXK Reporting Station
Overcast Overcast  
Wind Chill: 42°   Ceiling: 700
Heat Index: 45°   Visibility: 9mi
Dew Point: 42°   Wind: 6mph
Humidity: 90%   Direction: 80°E
Pressure: 30.18"   Gusts: NA
Location:  33.77°N, 93.68°W
Report Text: KTXK 181753Z 08005KT 9SM OVC007 07/06 A3018 RMK AO2 SLP220 T00720056 10072 20039 58003
Loading
Personal Weather Stations






























Interactive Weather Map New forecast layout! Learn more

10-Day Weather Forecast

Advertisements
Track Severe Weather on mobile